createdAt,value
2023-05-19T00:00:03.349Z,1326.00
2023-05-19T00:01:03.616Z,1311.00
2023-05-19T00:02:03.486Z,1331.00
2023-05-19T00:03:03.639Z,1332.00
2023-05-19T00:04:03.514Z,1317.00
2023-05-19T00:05:03.567Z,1341.00
2023-05-19T00:06:03.661Z,1328.00
2023-05-19T00:07:03.650Z,1310.00
2023-05-19T00:08:03.710Z,1319.00
2023-05-19T00:09:03.792Z,1327.00
2023-05-19T00:10:03.802Z,1336.00
2023-05-19T00:11:03.862Z,1337.00
2023-05-19T00:12:03.891Z,1331.00
2023-05-19T00:13:03.914Z,1342.00
2023-05-19T00:14:03.966Z,1338.00
2023-05-19T00:15:04.032Z,1337.00
2023-05-19T00:16:04.121Z,1346.00
2023-05-19T00:17:04.110Z,1334.00
2023-05-19T00:18:04.191Z,1334.00
2023-05-19T00:19:04.227Z,1337.00
2023-05-19T00:20:04.197Z,1318.00
2023-05-19T00:21:04.253Z,1342.00
2023-05-19T00:22:04.291Z,1360.00
2023-05-19T00:23:04.282Z,1355.00
2023-05-19T00:24:04.313Z,1370.00
2023-05-19T00:25:04.344Z,1367.00
2023-05-19T00:26:04.385Z,1357.00
2023-05-19T00:27:04.383Z,1370.00
2023-05-19T00:28:04.424Z,1371.00
2023-05-19T00:29:04.456Z,1373.00
2023-05-19T00:30:04.562Z,1389.00
2023-05-19T00:31:04.490Z,1371.00
2023-05-19T00:32:04.516Z,1377.00
2023-05-19T00:33:04.553Z,1374.00
2023-05-19T00:34:04.525Z,1359.00
2023-05-19T00:35:04.538Z,1339.00
2023-05-19T00:36:04.576Z,1355.00
2023-05-19T00:37:04.576Z,1376.00
2023-05-19T00:38:04.593Z,1384.00
2023-05-19T00:39:04.620Z,1397.00
2023-05-19T00:40:04.661Z,1400.00
2023-05-19T00:41:04.725Z,1403.00
2023-05-19T00:42:04.749Z,1425.00
2023-05-19T00:43:04.792Z,1420.00
2023-05-19T00:44:04.812Z,1422.00
2023-05-19T00:45:04.853Z,1439.00
2023-05-19T00:46:04.926Z,1425.00
2023-05-19T00:47:05.000Z,1443.00
2023-05-19T00:48:04.984Z,1446.00
2023-05-19T00:49:04.991Z,1422.00
2023-05-19T00:50:04.988Z,1437.00
2023-05-19T00:51:05.030Z,1421.00
2023-05-19T00:52:05.035Z,1436.00
2023-05-19T00:53:05.041Z,1431.00
2023-05-19T00:54:05.085Z,1445.00
2023-05-19T00:55:05.128Z,1441.00
2023-05-19T00:56:05.181Z,1430.00
2023-05-19T00:57:05.223Z,1452.00
2023-05-19T00:58:05.252Z,1442.00
2023-05-19T00:59:05.285Z,1433.00
2023-05-19T01:00:05.319Z,1447.00
2023-05-19T01:01:05.495Z,1449.00
2023-05-19T01:02:05.387Z,1443.00
2023-05-19T01:03:05.520Z,1448.00
2023-05-19T01:04:05.679Z,1440.00
2023-05-19T01:05:05.490Z,1477.00
2023-05-19T01:06:05.553Z,1462.00
2023-05-19T01:07:05.582Z,1468.00
2023-05-19T01:08:05.613Z,1473.00
2023-05-19T01:09:05.669Z,1499.00
2023-05-19T01:10:05.714Z,1480.00
2023-05-19T01:11:05.762Z,1459.00
2023-05-19T01:12:05.796Z,1476.00
2023-05-19T01:13:05.850Z,1472.00
2023-05-19T01:14:05.890Z,1485.00
2023-05-19T01:15:06.047Z,1520.00
2023-05-19T01:16:06.023Z,1493.00
2023-05-19T01:17:06.023Z,1495.00
2023-05-19T01:18:06.122Z,1486.00
2023-05-19T01:19:06.175Z,1508.00
2023-05-19T01:20:06.142Z,1491.00
2023-05-19T01:21:06.165Z,1475.00
2023-05-19T01:22:06.220Z,1502.00
2023-05-19T01:23:06.268Z,1515.00
2023-05-19T01:24:06.309Z,1523.00
2023-05-19T01:25:06.373Z,1550.00
2023-05-19T01:26:06.409Z,1512.00
2023-05-19T01:27:06.485Z,1534.00
2023-05-19T01:28:06.507Z,1539.00
2023-05-19T01:29:06.549Z,1549.00
2023-05-19T01:30:06.551Z,1574.00
2023-05-19T01:31:06.581Z,1568.00
2023-05-19T01:32:06.733Z,1575.00
2023-05-19T01:33:06.796Z,1573.00
2023-05-19T01:34:06.722Z,1581.00
2023-05-19T01:35:06.747Z,1577.00
2023-05-19T01:36:06.788Z,1569.00
2023-05-19T01:37:06.829Z,1579.00
2023-05-19T01:38:06.864Z,1583.00
2023-05-19T01:39:06.936Z,1606.00
2023-05-19T01:40:06.942Z,1608.00
2023-05-19T01:41:07.008Z,1595.00
2023-05-19T01:42:07.048Z,1631.00
2023-05-19T01:43:07.157Z,1615.00
2023-05-19T01:44:07.145Z,1617.00
2023-05-19T01:45:07.173Z,1619.00
2023-05-19T01:46:07.307Z,1635.00
2023-05-19T01:47:07.242Z,1628.00
2023-05-19T01:48:10.691Z,1655.00
2023-05-19T01:49:07.305Z,1661.00
2023-05-19T01:50:07.285Z,1649.00
2023-05-19T01:51:07.288Z,1648.00
2023-05-19T01:52:07.256Z,1652.00
2023-05-19T01:53:07.256Z,1637.00
2023-05-19T01:54:07.256Z,1652.00
2023-05-19T01:55:07.231Z,1667.00
2023-05-19T01:56:07.357Z,1659.00
2023-05-19T01:57:07.245Z,1633.00
2023-05-19T01:58:07.231Z,1634.00
2023-05-19T01:59:07.225Z,1627.00
2023-05-19T02:00:07.202Z,1619.00
2023-05-19T02:02:07.184Z,1632.00
2023-05-19T02:03:07.292Z,1638.00
2023-05-19T02:04:07.211Z,1655.00
2023-05-19T02:05:07.159Z,1655.00
2023-05-19T02:06:07.179Z,1631.00
2023-05-19T02:07:07.178Z,1651.00
2023-05-19T02:08:07.183Z,1657.00
2023-05-19T02:09:07.154Z,1620.00
2023-05-19T02:10:07.146Z,1639.00
2023-05-19T02:11:07.150Z,1621.00
2023-05-19T02:12:07.122Z,1643.00
2023-05-19T02:13:07.106Z,1628.00
2023-05-19T02:14:07.100Z,1641.00
2023-05-19T02:15:07.089Z,1633.00
2023-05-19T02:16:07.101Z,1649.00
2023-05-19T02:17:07.085Z,1621.00
2023-05-19T02:18:07.113Z,1606.00
2023-05-19T02:19:07.109Z,1610.00
2023-05-19T02:20:07.074Z,1625.00
2023-05-19T02:21:07.063Z,1641.00
2023-05-19T02:22:07.062Z,1637.00
2023-05-19T02:23:07.039Z,1656.00
2023-05-19T02:24:07.032Z,1670.00
2023-05-19T02:25:07.014Z,1663.00
2023-05-19T02:26:07.003Z,1663.00
2023-05-19T02:27:07.010Z,1696.00
2023-05-19T02:28:07.055Z,1694.00
2023-05-19T02:29:07.069Z,1708.00
2023-05-19T02:30:07.132Z,1696.00
2023-05-19T02:31:07.164Z,1714.00
2023-05-19T02:32:07.241Z,1678.00
2023-05-19T02:33:07.299Z,1692.00
2023-05-19T02:34:07.318Z,1685.00
2023-05-19T02:35:07.374Z,1704.00
2023-05-19T02:36:07.412Z,1688.00
2023-05-19T02:37:07.436Z,1718.00
2023-05-19T02:38:07.462Z,1714.00
2023-05-19T02:39:07.466Z,1708.00
2023-05-19T02:40:07.495Z,1714.00
2023-05-19T02:41:07.511Z,1713.00
2023-05-19T02:42:07.542Z,1704.00
2023-05-19T02:43:07.554Z,1725.00
2023-05-19T02:44:07.607Z,1706.00
2023-05-19T02:45:07.589Z,1713.00
2023-05-19T02:46:07.631Z,1722.00
2023-05-19T02:47:07.626Z,1717.00
2023-05-19T02:48:07.704Z,1731.00
2023-05-19T02:49:07.656Z,1715.00
2023-05-19T02:50:07.686Z,1737.00
2023-05-19T02:51:07.714Z,1745.00
2023-05-19T02:52:07.810Z,1746.00
2023-05-19T02:53:07.777Z,1757.00
2023-05-19T02:54:07.800Z,1775.00
2023-05-19T02:55:07.853Z,1769.00
2023-05-19T02:56:07.901Z,1755.00
2023-05-19T02:57:07.945Z,1775.00
2023-05-19T02:58:07.990Z,1747.00
2023-05-19T02:59:08.060Z,1782.00
2023-05-19T03:00:08.054Z,1767.00
2023-05-19T03:01:08.150Z,1769.00
2023-05-19T03:02:08.315Z,1752.00
2023-05-19T03:03:08.322Z,1766.00
2023-05-19T03:04:08.295Z,1754.00
2023-05-19T03:05:08.393Z,1763.00
2023-05-19T03:06:08.321Z,1786.00
2023-05-19T03:07:08.382Z,1780.00
2023-05-19T03:08:08.414Z,1783.00
2023-05-19T03:09:08.451Z,1779.00
2023-05-19T03:10:08.566Z,1765.00
2023-05-19T03:11:08.547Z,1787.00
2023-05-19T03:12:08.576Z,1780.00
2023-05-19T03:13:08.633Z,1784.00
2023-05-19T03:14:08.681Z,1792.00
2023-05-19T03:15:08.702Z,1792.00
2023-05-19T03:16:08.827Z,1806.00
2023-05-19T03:17:08.766Z,1831.00
2023-05-19T03:18:08.814Z,1815.00
2023-05-19T03:19:08.846Z,1790.00
2023-05-19T03:20:08.814Z,1802.00
2023-05-19T03:21:08.838Z,1805.00
2023-05-19T03:22:08.868Z,1805.00
2023-05-19T03:23:08.904Z,1784.00
2023-05-19T03:24:08.962Z,1815.00
2023-05-19T03:25:09.017Z,1835.00
2023-05-19T03:26:09.103Z,1840.00
2023-05-19T03:27:09.040Z,1825.00
2023-05-19T03:28:09.036Z,1827.00
2023-05-19T03:29:09.044Z,1822.00
2023-05-19T03:30:09.077Z,1823.00
2023-05-19T03:31:09.100Z,1819.00
2023-05-19T03:32:09.164Z,1827.00
2023-05-19T03:33:09.336Z,1824.00
2023-05-19T03:34:09.235Z,1843.00
2023-05-19T03:35:09.248Z,1853.00
2023-05-19T03:36:09.329Z,1839.00
2023-05-19T03:37:09.314Z,1837.00
2023-05-19T03:38:09.341Z,1847.00
2023-05-19T03:39:09.334Z,1839.00
2023-05-19T03:40:09.327Z,1857.00
2023-05-19T03:41:09.365Z,1869.00
2023-05-19T03:42:09.407Z,1842.00
2023-05-19T03:43:09.445Z,1849.00
2023-05-19T03:44:09.499Z,1845.00
2023-05-19T03:45:09.531Z,1820.00
2023-05-19T03:46:09.620Z,1834.00
2023-05-19T03:47:09.602Z,1837.00
2023-05-19T03:48:09.707Z,1829.00
2023-05-19T03:49:09.681Z,1837.00
2023-05-19T03:50:09.724Z,1861.00
2023-05-19T03:51:09.816Z,1839.00
2023-05-19T03:52:09.807Z,1866.00
2023-05-19T03:53:09.824Z,1877.00
2023-05-19T03:54:09.886Z,1880.00
2023-05-19T03:55:09.902Z,1877.00
2023-05-19T03:56:09.966Z,1886.00
2023-05-19T03:57:10.032Z,1869.00
2023-05-19T03:58:10.043Z,1873.00
2023-05-19T03:59:10.064Z,1885.00
2023-05-19T04:00:10.092Z,1880.00
2023-05-19T04:01:10.095Z,1876.00
2023-05-19T04:02:10.128Z,1883.00
2023-05-19T04:03:10.233Z,1885.00
2023-05-19T04:04:10.190Z,1920.00
2023-05-19T04:05:10.167Z,1874.00
2023-05-19T04:06:10.217Z,1876.00
2023-05-19T04:07:10.258Z,1861.00
2023-05-19T04:08:10.316Z,1857.00
2023-05-19T04:09:10.343Z,1855.00
2023-05-19T04:10:10.400Z,1860.00
2023-05-19T04:11:10.402Z,1876.00
2023-05-19T04:12:10.472Z,1860.00
2023-05-19T04:13:10.452Z,1859.00
2023-05-19T04:14:10.474Z,1878.00
2023-05-19T04:15:10.496Z,1858.00
2023-05-19T04:16:10.577Z,1852.00
2023-05-19T04:17:10.584Z,1868.00
2023-05-19T04:18:10.637Z,1875.00
2023-05-19T04:19:10.676Z,1875.00
2023-05-19T04:20:10.586Z,1844.00
2023-05-19T04:21:10.656Z,1860.00
2023-05-19T04:22:10.674Z,1866.00
2023-05-19T04:23:10.719Z,1860.00
2023-05-19T04:24:10.763Z,1870.00
2023-05-19T04:25:10.789Z,1873.00
2023-05-19T04:26:10.817Z,1884.00
2023-05-19T04:27:10.815Z,1873.00
2023-05-19T04:28:10.835Z,1874.00
2023-05-19T04:29:10.837Z,1865.00
2023-05-19T04:30:10.874Z,1853.00
2023-05-19T04:31:11.157Z,1843.00
2023-05-19T04:32:10.968Z,1846.00
2023-05-19T04:33:11.050Z,1836.00
2023-05-19T04:34:11.075Z,1825.00
2023-05-19T04:35:11.102Z,1833.00
2023-05-19T04:36:11.195Z,1801.00
2023-05-19T04:37:11.200Z,1808.00
2023-05-19T04:38:11.226Z,1805.00
2023-05-19T04:39:11.346Z,1814.00
2023-05-19T04:40:11.338Z,1816.00
2023-05-19T04:41:11.319Z,1828.00
2023-05-19T04:42:11.364Z,1824.00
2023-05-19T04:43:11.401Z,1824.00
2023-05-19T04:44:11.409Z,1832.00
2023-05-19T04:45:11.449Z,1819.00
2023-05-19T04:46:13.176Z,1820.00
2023-05-19T04:47:11.671Z,1788.00
2023-05-19T04:48:11.542Z,1792.00
2023-05-19T04:49:11.598Z,1799.00
2023-05-19T04:50:11.622Z,1797.00
2023-05-19T04:51:11.634Z,1782.00
2023-05-19T04:52:11.680Z,1781.00
2023-05-19T04:53:11.755Z,1779.00
2023-05-19T04:54:11.753Z,1774.00
2023-05-19T04:55:11.749Z,1775.00
2023-05-19T04:56:11.812Z,1755.00
2023-05-19T04:57:11.827Z,1768.00
2023-05-19T04:58:11.886Z,1777.00
2023-05-19T04:59:11.941Z,1771.00
2023-05-19T05:00:11.949Z,1788.00
2023-05-19T05:01:11.978Z,1768.00
2023-05-19T05:02:12.100Z,1775.00
2023-05-19T05:03:12.138Z,1772.00
2023-05-19T05:04:12.168Z,1760.00
2023-05-19T05:05:12.122Z,1747.00
2023-05-19T05:06:12.151Z,1749.00
2023-05-19T05:07:12.207Z,1722.00
2023-05-19T05:08:12.226Z,1703.00
2023-05-19T05:09:12.256Z,1689.00
2023-05-19T05:10:12.288Z,1668.00
2023-05-19T05:11:12.327Z,1687.00
2023-05-19T05:12:12.340Z,1661.00
2023-05-19T05:13:12.390Z,1643.00
2023-05-19T05:14:12.432Z,1621.00
2023-05-19T05:15:12.428Z,1641.00
2023-05-19T05:16:12.551Z,1629.00
2023-05-19T05:17:12.479Z,1618.00
2023-05-19T05:18:12.520Z,1617.00
2023-05-19T05:19:12.580Z,1631.00
2023-05-19T05:20:12.574Z,1630.00
2023-05-19T05:21:12.617Z,1594.00
2023-05-19T05:22:12.633Z,1603.00
2023-05-19T05:23:12.670Z,1590.00
2023-05-19T05:24:12.694Z,1615.00
2023-05-19T05:25:12.727Z,1613.00
2023-05-19T05:26:12.756Z,1585.00
2023-05-19T05:27:12.813Z,1587.00
2023-05-19T05:28:12.849Z,1617.00
2023-05-19T05:29:12.901Z,1581.00
2023-05-19T05:30:12.946Z,1550.00
2023-05-19T05:31:12.980Z,1539.00
2023-05-19T05:32:13.122Z,1544.00
2023-05-19T05:33:13.242Z,1524.00
2023-05-19T05:34:13.075Z,1503.00
2023-05-19T05:35:13.138Z,1503.00
2023-05-19T05:36:13.174Z,1508.00
2023-05-19T05:37:15.116Z,1503.00
2023-05-19T05:38:13.270Z,1506.00
2023-05-19T05:39:13.315Z,1530.00
2023-05-19T05:40:13.320Z,1523.00
2023-05-19T05:41:13.383Z,1549.00
2023-05-19T05:42:13.397Z,1548.00
2023-05-19T05:43:13.445Z,1550.00
2023-05-19T05:44:13.510Z,1547.00
2023-05-19T05:45:13.603Z,1555.00
2023-05-19T05:46:13.590Z,1549.00
2023-05-19T05:47:13.598Z,1549.00
2023-05-19T05:48:13.646Z,1537.00
2023-05-19T05:49:13.696Z,1529.00
2023-05-19T05:50:13.681Z,1534.00
2023-05-19T05:51:13.724Z,1546.00
2023-05-19T05:52:13.729Z,1530.00
2023-05-19T05:53:13.751Z,1536.00
2023-05-19T05:54:13.796Z,1529.00
2023-05-19T05:55:13.838Z,1526.00
2023-05-19T05:56:13.860Z,1511.00
2023-05-19T05:57:13.904Z,1515.00
2023-05-19T05:58:13.906Z,1506.00
2023-05-19T05:59:13.952Z,1495.00
2023-05-19T06:00:13.954Z,1506.00
2023-05-19T06:01:14.017Z,1514.00
2023-05-19T06:02:14.106Z,1504.00
2023-05-19T06:03:14.215Z,1498.00
2023-05-19T06:04:14.079Z,1537.00
2023-05-19T06:05:14.255Z,1529.00
2023-05-19T06:06:14.289Z,1520.00
2023-05-19T06:07:14.226Z,1554.00
2023-05-19T06:08:14.205Z,1537.00
2023-05-19T06:09:14.197Z,1521.00
2023-05-19T06:10:14.260Z,1515.00
2023-05-19T06:11:14.329Z,1523.00
2023-05-19T06:12:14.332Z,1551.00
2023-05-19T06:13:14.377Z,1577.00
2023-05-19T06:14:14.352Z,1567.00
2023-05-19T06:15:14.452Z,1547.00
2023-05-19T06:16:14.477Z,1557.00
2023-05-19T06:17:14.475Z,1567.00
2023-05-19T06:18:14.552Z,1560.00
2023-05-19T06:19:14.568Z,1582.00
2023-05-19T06:20:14.552Z,1550.00
2023-05-19T06:21:14.597Z,1531.00
2023-05-19T06:22:14.591Z,1554.00
2023-05-19T06:23:14.639Z,1542.00
2023-05-19T06:24:14.609Z,1555.00
2023-05-19T06:25:14.666Z,1548.00
2023-05-19T06:26:14.714Z,1503.00
2023-05-19T06:27:14.784Z,1477.00
2023-05-19T06:28:14.819Z,1491.00
2023-05-19T06:29:14.859Z,1488.00
2023-05-19T06:30:14.893Z,1482.00
2023-05-19T06:31:15.009Z,1519.00
2023-05-19T06:32:14.913Z,1519.00
2023-05-19T06:33:14.978Z,1559.00
2023-05-19T06:34:14.928Z,1544.00
2023-05-19T06:35:14.941Z,1545.00
2023-05-19T06:36:14.942Z,1553.00
2023-05-19T06:37:14.954Z,1539.00
2023-05-19T06:38:14.980Z,1563.00
2023-05-19T06:39:14.991Z,1516.00
2023-05-19T06:40:15.008Z,1567.00
2023-05-19T06:41:15.024Z,1568.00
2023-05-19T06:42:15.062Z,1573.00
2023-05-19T06:43:15.133Z,1545.00
2023-05-19T06:44:15.164Z,1531.00
2023-05-19T06:45:15.211Z,1547.00
2023-05-19T06:46:15.289Z,1582.00
2023-05-19T06:47:15.489Z,1548.00
2023-05-19T06:48:15.426Z,1565.00
2023-05-19T06:49:15.381Z,1572.00
2023-05-19T06:50:15.367Z,1539.00
2023-05-19T06:51:15.387Z,1562.00
2023-05-19T06:52:15.392Z,1544.00
2023-05-19T06:53:15.426Z,1566.00
2023-05-19T06:54:15.422Z,1578.00
2023-05-19T06:55:15.446Z,1572.00
2023-05-19T06:56:15.462Z,1542.00
2023-05-19T06:57:15.451Z,1546.00
2023-05-19T06:58:15.496Z,1581.00
2023-05-19T06:59:15.560Z,1576.00
2023-05-19T07:00:18.314Z,1596.00
2023-05-19T07:01:15.615Z,1596.00
2023-05-19T07:02:15.612Z,1599.00
2023-05-19T07:03:15.607Z,1594.00
2023-05-19T07:04:15.572Z,1612.00
2023-05-19T07:05:15.536Z,1623.00
2023-05-19T07:06:15.549Z,1605.00
2023-05-19T07:07:15.526Z,1575.00
2023-05-19T07:08:15.540Z,1607.00
2023-05-19T07:09:15.617Z,1589.00
2023-05-19T07:10:15.526Z,1573.00
2023-05-19T07:11:15.514Z,1577.00
2023-05-19T07:12:15.505Z,1560.00
2023-05-19T07:13:15.509Z,1588.00
2023-05-19T07:14:15.502Z,1604.00
2023-05-19T07:15:15.484Z,1570.00
2023-05-19T07:16:15.521Z,1564.00
2023-05-19T07:17:15.789Z,1563.00
2023-05-19T07:18:15.466Z,1578.00
2023-05-19T07:19:15.477Z,1547.00
2023-05-19T07:20:15.449Z,1551.00
2023-05-19T07:21:15.423Z,1574.00
2023-05-19T07:22:15.435Z,1541.00
2023-05-19T07:23:17.254Z,1533.00
2023-05-19T07:24:15.431Z,1510.00
2023-05-19T07:25:15.441Z,1566.00
2023-05-19T07:26:15.485Z,1605.00
2023-05-19T07:27:15.526Z,1565.00
2023-05-19T07:28:15.557Z,1588.00
2023-05-19T07:29:15.602Z,1624.00
2023-05-19T07:30:15.629Z,1594.00
2023-05-19T07:31:15.677Z,1582.00
2023-05-19T07:32:15.847Z,1581.00
2023-05-19T07:33:15.816Z,1559.00
2023-05-19T07:34:15.830Z,1609.00
2023-05-19T07:35:15.833Z,1578.00
2023-05-19T07:36:15.892Z,1559.00
2023-05-19T07:37:15.918Z,1589.00
2023-05-19T07:38:15.962Z,1575.00
2023-05-19T07:39:16.064Z,1595.00
2023-05-19T07:40:16.041Z,1636.00
2023-05-19T07:41:16.102Z,1635.00
2023-05-19T07:42:16.091Z,1636.00
2023-05-19T07:43:16.182Z,1670.00
2023-05-19T07:44:16.210Z,1680.00
2023-05-19T07:45:16.221Z,1679.00
2023-05-19T07:46:16.387Z,1663.00
2023-05-19T07:47:16.316Z,1693.00
2023-05-19T07:48:16.453Z,1717.00
2023-05-19T07:49:16.420Z,1694.00
2023-05-19T07:50:16.444Z,1719.00
2023-05-19T07:51:16.447Z,1738.00
2023-05-19T07:52:16.480Z,1742.00
2023-05-19T07:53:16.527Z,1732.00
2023-05-19T07:54:16.561Z,1780.00
2023-05-19T07:55:16.627Z,1797.00
2023-05-19T07:56:16.624Z,1826.00
2023-05-19T07:57:16.665Z,1854.00
2023-05-19T07:58:16.681Z,1859.00
2023-05-19T07:59:16.721Z,1873.00
2023-05-19T08:00:16.730Z,1890.00
2023-05-19T08:01:16.796Z,1896.00
2023-05-19T08:02:16.839Z,1877.00
2023-05-19T08:03:16.992Z,1896.00
2023-05-19T08:04:17.033Z,1909.00
2023-05-19T08:05:16.868Z,1925.00
2023-05-19T08:06:16.917Z,1937.00
2023-05-19T08:07:17.159Z,1937.00
2023-05-19T08:08:17.063Z,1955.00
2023-05-19T08:09:17.009Z,1940.00
2023-05-19T08:10:17.051Z,1937.00
2023-05-19T08:11:17.107Z,1954.00
2023-05-19T08:12:17.141Z,1959.00
2023-05-19T08:13:17.227Z,1983.00
2023-05-19T08:14:17.231Z,2013.00
2023-05-19T08:15:17.251Z,2016.00
2023-05-19T08:16:17.415Z,2023.00
2023-05-19T08:17:17.357Z,2005.00
2023-05-19T08:18:17.346Z,1991.00
2023-05-19T08:19:17.526Z,2021.00
2023-05-19T08:20:17.404Z,2051.00
2023-05-19T08:21:17.426Z,2045.00
2023-05-19T08:22:17.446Z,2031.00
2023-05-19T08:23:17.515Z,2037.00
2023-05-19T08:24:17.563Z,2050.00
2023-05-19T08:25:17.529Z,2018.00
2023-05-19T08:26:17.558Z,2001.00
2023-05-19T08:27:17.622Z,1989.00
2023-05-19T08:28:17.610Z,1978.00
2023-05-19T08:29:17.638Z,1948.00
2023-05-19T08:30:17.633Z,1932.00
2023-05-19T08:31:17.664Z,1942.00
2023-05-19T08:32:17.657Z,1956.00
2023-05-19T08:33:17.655Z,1941.00
2023-05-19T08:34:17.683Z,1944.00
2023-05-19T08:35:17.705Z,1946.00
2023-05-19T08:36:17.720Z,1944.00
2023-05-19T08:37:17.754Z,1916.00
2023-05-19T08:38:17.821Z,1923.00
2023-05-19T08:39:17.840Z,1880.00
2023-05-19T08:40:17.871Z,1863.00
2023-05-19T08:41:17.882Z,1832.00
2023-05-19T08:42:17.881Z,1835.00
2023-05-19T08:43:17.902Z,1818.00
2023-05-19T08:44:19.030Z,1828.00
2023-05-19T08:45:17.940Z,1826.00
2023-05-19T08:46:17.976Z,1789.00
2023-05-19T08:47:17.963Z,1803.00
2023-05-19T08:48:17.998Z,1834.00
2023-05-19T08:49:17.991Z,1855.00
2023-05-19T08:50:18.036Z,1878.00
2023-05-19T08:51:18.023Z,1882.00
2023-05-19T08:52:18.093Z,1867.00
2023-05-19T08:53:31.752Z,1849.00
2023-05-19T08:54:19.090Z,1849.00
2023-05-19T08:55:18.096Z,1851.00
2023-05-19T08:56:18.088Z,1852.00
2023-05-19T08:57:18.074Z,1845.00
2023-05-19T08:58:18.061Z,1867.00
2023-05-19T08:59:18.068Z,1863.00
2023-05-19T09:00:18.054Z,1824.00
2023-05-19T09:01:18.099Z,1820.00
2023-05-19T09:02:18.055Z,1796.00
2023-05-19T09:03:23.507Z,1788.00
2023-05-19T09:04:19.109Z,1788.00
2023-05-19T09:05:18.039Z,1738.00
2023-05-19T09:06:18.002Z,1703.00
2023-05-19T09:07:18.001Z,1697.00
2023-05-19T09:08:17.998Z,1666.00
2023-05-19T09:09:17.988Z,1643.00
2023-05-19T09:10:17.971Z,1633.00
2023-05-19T09:11:17.969Z,1609.00
2023-05-19T09:12:17.977Z,1628.00
2023-05-19T09:13:17.961Z,1654.00
2023-05-19T09:14:17.967Z,1712.00
2023-05-19T09:15:17.950Z,1756.00
2023-05-19T09:16:18.013Z,1766.00
2023-05-19T09:17:17.933Z,1783.00
2023-05-19T09:18:17.946Z,1796.00
2023-05-19T09:19:18.052Z,1785.00
2023-05-19T09:20:18.023Z,1799.00
2023-05-19T09:21:18.018Z,1798.00
2023-05-19T09:22:18.044Z,1822.00
2023-05-19T09:23:18.089Z,1830.00
2023-05-19T09:24:18.148Z,1836.00
2023-05-19T09:25:18.194Z,1845.00
2023-05-19T09:26:18.158Z,1862.00
2023-05-19T09:27:18.232Z,1866.00
2023-05-19T09:28:18.201Z,1833.00
2023-05-19T09:29:18.236Z,1857.00
2023-05-19T09:30:18.228Z,1881.00
2023-05-19T09:31:18.251Z,1898.00
2023-05-19T09:32:18.302Z,1902.00
2023-05-19T09:33:18.275Z,1902.00
2023-05-19T09:34:18.253Z,1893.00
2023-05-19T09:35:18.258Z,1884.00
2023-05-19T09:36:18.294Z,1873.00
2023-05-19T09:37:18.341Z,1868.00
2023-05-19T09:38:18.298Z,1855.00
2023-05-19T09:39:18.324Z,1895.00
2023-05-19T09:40:18.377Z,1890.00
2023-05-19T09:41:18.353Z,1894.00
2023-05-19T09:42:18.358Z,1883.00
2023-05-19T09:43:18.384Z,1897.00
2023-05-19T09:44:18.402Z,1866.00
2023-05-19T09:45:18.459Z,1873.00
2023-05-19T09:46:18.555Z,1852.00
2023-05-19T09:47:18.524Z,1868.00
2023-05-19T09:48:18.560Z,1863.00
2023-05-19T09:49:18.606Z,1883.00
2023-05-19T09:50:18.735Z,1863.00
2023-05-19T09:51:18.675Z,1876.00
2023-05-19T09:52:18.721Z,1861.00
2023-05-19T09:53:18.718Z,1851.00
2023-05-19T09:54:18.735Z,1849.00
2023-05-19T09:55:18.766Z,1854.00
2023-05-19T09:56:18.788Z,1848.00
2023-05-19T09:57:18.824Z,1846.00
2023-05-19T09:58:18.890Z,1843.00
2023-05-19T09:59:18.906Z,1815.00
2023-05-19T10:00:18.924Z,1805.00
2023-05-19T10:01:18.981Z,1782.00
2023-05-19T10:02:18.978Z,1786.00
2023-05-19T10:03:18.968Z,1772.00
2023-05-19T10:04:18.968Z,1752.00
2023-05-19T10:05:19.061Z,1769.00
2023-05-19T10:06:19.011Z,1759.00
2023-05-19T10:07:19.011Z,1734.00
2023-05-19T10:08:19.078Z,1731.00
2023-05-19T10:09:19.041Z,1730.00
2023-05-19T10:10:19.085Z,1727.00
2023-05-19T10:11:19.126Z,1717.00
2023-05-19T10:12:19.173Z,1722.00
2023-05-19T10:13:19.188Z,1706.00
2023-05-19T10:14:19.219Z,1710.00
2023-05-19T10:15:20.601Z,1747.00
2023-05-19T10:16:19.219Z,1714.00
2023-05-19T10:17:19.223Z,1729.00
2023-05-19T10:18:19.257Z,1743.00
2023-05-19T10:19:19.262Z,1734.00
2023-05-19T10:20:19.194Z,1685.00
2023-05-19T10:21:19.190Z,1632.00
2023-05-19T10:22:19.178Z,1614.00
2023-05-19T10:23:19.197Z,1634.00
2023-05-19T10:24:19.172Z,1596.00
2023-05-19T10:25:19.159Z,1588.00
2023-05-19T10:26:19.157Z,1574.00
2023-05-19T10:27:19.167Z,1560.00
2023-05-19T10:28:19.156Z,1573.00
2023-05-19T10:29:19.146Z,1587.00
2023-05-19T10:30:19.115Z,1585.00
2023-05-19T10:31:19.209Z,1557.00
2023-05-19T10:32:19.194Z,1537.00
2023-05-19T10:33:19.127Z,1519.00
2023-05-19T10:34:19.156Z,1506.00
2023-05-19T10:35:19.102Z,1502.00
2023-05-19T10:36:19.085Z,1506.00
2023-05-19T10:37:19.069Z,1502.00
2023-05-19T10:38:19.091Z,1483.00
2023-05-19T10:39:19.039Z,1415.00
2023-05-19T10:40:19.056Z,1406.00
2023-05-19T10:41:19.030Z,1367.00
2023-05-19T10:42:19.038Z,1395.00
2023-05-19T10:43:19.034Z,1347.00
2023-05-19T10:44:19.026Z,1387.00
2023-05-19T10:45:19.004Z,1385.00
2023-05-19T10:46:19.179Z,1361.00
2023-05-19T10:47:19.024Z,1370.00
2023-05-19T10:48:18.983Z,1389.00
2023-05-19T10:49:18.993Z,1451.00
2023-05-19T10:50:19.000Z,1449.00
2023-05-19T10:51:18.986Z,1506.00
2023-05-19T10:52:18.966Z,1507.00
2023-05-19T10:53:18.952Z,1498.00
2023-05-19T10:54:18.941Z,1509.00
2023-05-19T10:55:18.949Z,1531.00
2023-05-19T10:56:18.925Z,1514.00
2023-05-19T10:57:18.930Z,1497.00
2023-05-19T10:58:18.920Z,1511.00
2023-05-19T10:59:18.901Z,1509.00
2023-05-19T11:00:18.919Z,1504.00
2023-05-19T11:01:18.974Z,1528.00
2023-05-19T11:02:18.989Z,1534.00
2023-05-19T11:03:18.893Z,1579.00
2023-05-19T11:04:18.922Z,1553.00
2023-05-19T11:05:18.855Z,1596.00
2023-05-19T11:06:18.877Z,1560.00
2023-05-19T11:07:18.838Z,1566.00
2023-05-19T11:08:18.873Z,1569.00
2023-05-19T11:09:20.890Z,1603.00
2023-05-19T11:10:19.833Z,1581.00
2023-05-19T11:11:18.821Z,1573.00
2023-05-19T11:12:18.804Z,1560.00
2023-05-19T11:13:18.795Z,1565.00
2023-05-19T11:14:18.786Z,1586.00
2023-05-19T11:15:18.793Z,1567.00
2023-05-19T11:16:18.840Z,1579.00
2023-05-19T11:17:18.777Z,1542.00
2023-05-19T11:18:18.756Z,1539.00
2023-05-19T11:19:18.853Z,1556.00
2023-05-19T11:20:18.816Z,1571.00
2023-05-19T11:21:18.919Z,1585.00
2023-05-19T11:22:18.903Z,1602.00
2023-05-19T11:23:19.000Z,1591.00
2023-05-19T11:24:18.979Z,1577.00
2023-05-19T11:25:19.014Z,1571.00
2023-05-19T11:26:19.062Z,1564.00
2023-05-19T11:27:19.142Z,1567.00
2023-05-19T11:28:19.342Z,1572.00
2023-05-19T11:29:19.156Z,1571.00
2023-05-19T11:30:19.232Z,1535.00
2023-05-19T11:31:19.222Z,1536.00
2023-05-19T11:32:19.404Z,1521.00
2023-05-19T11:33:19.392Z,1497.00
2023-05-19T11:34:19.301Z,1499.00
2023-05-19T11:35:19.329Z,1466.00
2023-05-19T11:36:19.340Z,1445.00
2023-05-19T11:37:19.365Z,1468.00
2023-05-19T11:38:19.338Z,1507.00
2023-05-19T11:39:19.345Z,1481.00
2023-05-19T11:40:19.353Z,1450.00
2023-05-19T11:41:20.913Z,1453.00
2023-05-19T11:42:19.428Z,1436.00
2023-05-19T11:43:19.431Z,1478.00
2023-05-19T11:44:19.455Z,1452.00
2023-05-19T11:45:19.484Z,1430.00
2023-05-19T11:46:19.589Z,1416.00
2023-05-19T11:47:19.698Z,1423.00
2023-05-19T11:48:19.580Z,1404.00
2023-05-19T11:49:19.563Z,1420.00
2023-05-19T11:50:19.599Z,1396.00
2023-05-19T11:51:19.591Z,1371.00
2023-05-19T11:52:19.606Z,1324.00
2023-05-19T11:53:19.966Z,1368.00
2023-05-19T11:54:19.677Z,1359.00
2023-05-19T11:55:19.706Z,1283.00
2023-05-19T11:56:19.749Z,1319.00
2023-05-19T11:57:19.762Z,1308.00
2023-05-19T11:58:19.767Z,1322.00
2023-05-19T11:59:19.809Z,1343.00
2023-05-19T12:00:19.801Z,1302.00
2023-05-19T12:01:19.826Z,1285.00
2023-05-19T12:02:19.909Z,1285.00
2023-05-19T12:03:19.953Z,1244.00
2023-05-19T12:04:19.902Z,1278.00
2023-05-19T12:05:19.964Z,1288.00
2023-05-19T12:06:19.983Z,1247.00